Time;durP1;ratioP1;P1;durP2;ratioP2;P2;SDS_P1;SDS_P2;PMS_P1;PMS_P2;Temp;Humidity;BMP_temperature;BMP_pressure;BME280_temperature;BME280_humidity;BME280_pressure;Samples;Min_cycle;Max_cycle;Signal;HPM_P1;HPM_P2
2022/08/08 10:21:35;;;;;;;5.70;1.70;;;;;;;;;;5144919;23;20092;-74
2022/08/08 10:24:05;;;;;;;5.78;1.48;;;;;;;;;;4894960;29;20044;-75
2022/08/08 10:26:31;;;;;;;11.63;2.10;;;;;;;;;;4884684;29;20032;-75
2022/08/08 10:29:23;;;;;;;3.90;1.70;;;;;;;;;;4888120;29;20088;-75
2022/08/08 10:34:48;;;;;;;4.90;1.75;;;;;;;;;;4896426;29;20093;-76
2022/08/08 10:37:20;;;;;;;3.92;1.52;;;;;;;;;;4896753;29;20426;-75
2022/08/08 10:39:46;;;;;;;4.88;1.58;;;;;;;;;;4894039;29;20084;-75
2022/08/08 10:42:13;;;;;;;6.28;1.65;;;;;;;;;;4896686;29;20036;-75
2022/08/08 10:44:41;;;;;;;7.40;1.65;;;;;;;;;;4896010;29;20646;-75
2022/08/08 10:47:10;;;;;;;5.32;1.67;;;;;;;;;;4895946;29;20495;-75
2022/08/08 10:49:36;;;;;;;5.18;1.60;;;;;;;;;;4896961;29;20036;-74
2022/08/08 10:52:02;;;;;;;4.32;1.77;;;;;;;;;;4895660;29;20033;-74
2022/08/08 10:54:27;;;;;;;3.42;1.35;;;;;;;;;;4896191;29;20081;-74
2022/08/08 10:56:56;;;;;;;5.13;1.40;;;;;;;;;;4896724;29;20041;-74
2022/08/08 10:59:22;;;;;;;7.88;1.83;;;;;;;;;;4897029;29;20028;-74
2022/08/08 11:01:48;;;;;;;6.13;2.00;;;;;;;;;;4896398;29;20064;-74
2022/08/08 11:04:14;;;;;;;4.05;1.52;;;;;;;;;;4888494;29;20036;-75
2022/08/08 11:06:39;;;;;;;5.30;1.52;;;;;;;;;;4896655;29;20043;-74
2022/08/08 11:09:05;;;;;;;4.95;1.42;;;;;;;;;;4896725;29;20032;-74
2022/08/08 11:11:38;;;;;;;5.78;1.92;;;;;;;;;;4897308;29;20032;-74
2022/08/08 11:14:04;;;;;;;5.53;1.60;;;;;;;;;;4891644;29;20037;-74
2022/08/08 11:16:31;;;;;;;5.53;1.33;;;;;;;;;;4883552;29;20037;-73
2022/08/08 11:18:56;;;;;;;4.25;1.65;;;;;;;;;;4889619;29;20033;-74
2022/08/08 11:21:22;;;;;;;3.42;1.42;;;;;;;;;;4883185;29;20057;-74
2022/08/08 11:23:48;;;;;;;3.67;1.30;;;;;;;;;;4882556;29;20141;-74
2022/08/08 11:26:18;;;;;;;3.60;1.35;;;;;;;;;;4891880;29;20425;-74
2022/08/08 11:28:44;;;;;;;4.68;1.42;;;;;;;;;;4891384;29;20040;-74
2022/08/08 11:31:13;;;;;;;4.38;1.25;;;;;;;;;;4881716;29;20035;-74
2022/08/08 11:33:39;;;;;;;5.80;1.67;;;;;;;;;;4888469;29;20033;-74
2022/08/08 11:36:04;;;;;;;3.47;1.30;;;;;;;;;;4884395;29;20475;-74
2022/08/08 11:38:30;;;;;;;4.97;1.27;;;;;;;;;;4883115;29;20017;-74
2022/08/08 11:40:56;;;;;;;8.05;1.40;;;;;;;;;;4889132;29;20047;-74
2022/08/08 11:43:23;;;;;;;5.10;1.90;;;;;;;;;;4886100;29;20029;-74
2022/08/08 11:45:49;;;;;;;3.95;1.42;;;;;;;;;;4892047;29;20063;-74
2022/08/08 11:48:15;;;;;;;4.07;1.20;;;;;;;;;;4891471;29;20044;-75
2022/08/08 11:50:41;;;;;;;3.65;1.40;;;;;;;;;;4894901;29;20032;-74
2022/08/08 11:53:08;;;;;;;4.88;1.33;;;;;;;;;;4885620;29;20033;-74
2022/08/08 11:55:36;;;;;;;4.43;1.30;;;;;;;;;;4888338;29;20035;-74
2022/08/08 11:58:01;;;;;;;3.47;1.50;;;;;;;;;;4886713;29;20033;-75
2022/08/08 12:00:27;;;;;;;3.83;1.17;;;;;;;;;;4883860;29;20021;-74
2022/08/08 12:02:56;;;;;;;4.97;1.75;;;;;;;;;;4882215;29;20064;-73
2022/08/08 12:05:31;;;;;;;3.25;1.30;;;;;;;;;;4881980;29;20033;-73
2022/08/08 12:07:57;;;;;;;7.65;1.60;;;;;;;;;;4888462;29;20068;-73
2022/08/08 12:10:25;;;;;;;4.47;1.50;;;;;;;;;;4899752;29;20124;-73
2022/08/08 12:13:06;;;;;;;3.67;1.30;;;;;;;;;;4899730;29;20048;-73
2022/08/08 12:15:36;;;;;;;3.22;1.25;;;;;;;;;;4899771;29;20036;-73
2022/08/08 12:18:18;;;;;;;4.97;1.55;;;;;;;;;;4899162;29;20036;-73
2022/08/08 12:20:44;;;;;;;5.47;1.13;;;;;;;;;;4899452;29;20056;-74
2022/08/08 12:23:09;;;;;;;6.90;1.50;;;;;;;;;;4899340;29;20480;-74
2022/08/08 12:25:34;;;;;;;2.92;1.23;;;;;;;;;;4899039;29;20044;-73
2022/08/08 12:28:13;;;;;;;3.55;1.23;;;;;;;;;;4899042;29;20041;-73
2022/08/08 12:30:39;;;;;;;4.57;1.33;;;;;;;;;;4885054;29;20037;-73
2022/08/08 12:33:15;;;;;;;3.58;1.17;;;;;;;;;;4899641;29;20033;-73
2022/08/08 12:35:41;;;;;;;3.90;1.20;;;;;;;;;;4899412;29;20369;-73
2022/08/08 12:38:07;;;;;;;3.08;1.30;;;;;;;;;;4899204;29;20040;-73
2022/08/08 12:40:39;;;;;;;3.63;1.40;;;;;;;;;;4899119;29;20088;-73
2022/08/08 12:43:04;;;;;;;3.95;1.40;;;;;;;;;;4899175;29;20032;-73
2022/08/08 12:45:40;;;;;;;3.53;1.50;;;;;;;;;;4898987;29;20080;-73
2022/08/08 12:48:25;;;;;;;4.30;1.40;;;;;;;;;;4899138;29;20076;-73
2022/08/08 12:50:55;;;;;;;6.53;1.52;;;;;;;;;;4898292;29;20048;-73
2022/08/08 12:53:22;;;;;;;4.00;1.40;;;;;;;;;;4894238;29;20044;-73
2022/08/08 12:55:54;;;;;;;4.90;1.30;;;;;;;;;;4889810;29;20028;-74
2022/08/08 12:58:20;;;;;;;4.07;1.30;;;;;;;;;;4885284;29;20037;-73
2022/08/08 13:00:45;;;;;;;3.30;1.17;;;;;;;;;;4894428;29;20047;-74
2022/08/08 13:03:21;;;;;;;7.20;1.50;;;;;;;;;;4888032;29;20025;-73
2022/08/08 13:05:46;;;;;;;3.45;1.20;;;;;;;;;;4889804;29;20103;-73
2022/08/08 13:08:15;;;;;;;2.47;1.20;;;;;;;;;;4884114;29;20132;-73
2022/08/08 13:10:46;;;;;;;3.88;1.38;;;;;;;;;;4886166;29;20029;-73
2022/08/08 13:13:25;;;;;;;7.88;1.38;;;;;;;;;;4892993;29;20038;-74
2022/08/08 13:15:50;;;;;;;6.80;1.20;;;;;;;;;;4890365;29;20489;-73
2022/08/08 13:18:16;;;;;;;3.95;1.20;;;;;;;;;;4894952;29;20084;-73
2022/08/08 13:20:45;;;;;;;4.97;1.52;;;;;;;;;;4895782;29;20039;-73
2022/08/08 13:23:20;;;;;;;3.33;1.40;;;;;;;;;;4898195;29;20024;-73
2022/08/08 13:25:45;;;;;;;5.35;1.50;;;;;;;;;;4886605;29;20028;-73
2022/08/08 13:28:11;;;;;;;9.40;1.60;;;;;;;;;;4898380;29;20424;-73
2022/08/08 13:30:36;;;;;;;6.13;1.13;;;;;;;;;;4898074;29;20432;-73
2022/08/08 13:33:02;;;;;;;2.85;1.25;;;;;;;;;;4897527;29;20043;-73
2022/08/08 13:35:28;;;;;;;6.40;1.10;;;;;;;;;;4880401;29;20037;-73
2022/08/08 13:38:02;;;;;;;5.18;1.30;;;;;;;;;;4892685;29;20384;-73
2022/08/08 13:40:28;;;;;;;5.53;1.33;;;;;;;;;;4898077;29;20028;-73
2022/08/08 13:42:54;;;;;;;3.05;1.10;;;;;;;;;;4898296;29;20384;-73
2022/08/08 13:45:20;;;;;;;12.05;1.20;;;;;;;;;;4889424;29;20029;-73
2022/08/08 13:47:55;;;;;;;4.78;1.27;;;;;;;;;;4891385;29;20052;-73
2022/08/08 13:50:20;;;;;;;8.38;1.67;;;;;;;;;;4892764;29;20063;-73
2022/08/08 13:52:49;;;;;;;4.03;1.40;;;;;;;;;;4887090;29;20108;-73
2022/08/08 13:55:15;;;;;;;8.15;1.20;;;;;;;;;;4897794;29;20064;-73
2022/08/08 13:57:41;;;;;;;3.67;1.20;;;;;;;;;;4898101;29;20097;-73
2022/08/08 14:00:10;;;;;;;5.32;1.30;;;;;;;;;;4897922;29;20050;-73
2022/08/08 14:02:36;;;;;;;3.42;1.45;;;;;;;;;;4898044;29;20037;-73
2022/08/08 14:05:05;;;;;;;3.15;1.10;;;;;;;;;;4897951;29;20021;-74
2022/08/08 14:07:36;;;;;;;2.95;1.02;;;;;;;;;;4897325;29;20391;-73
2022/08/08 14:10:04;;;;;;;1.83;0.90;;;;;;;;;;4896052;29;20024;-74
2022/08/08 14:12:30;;;;;;;6.75;1.10;;;;;;;;;;4882241;29;20037;-73
2022/08/08 14:14:56;;;;;;;2.35;1.00;;;;;;;;;;4882910;29;20041;-74
2022/08/08 14:17:21;;;;;;;3.33;1.10;;;;;;;;;;4880368;29;20549;-73
2022/08/08 14:19:46;;;;;;;3.47;1.10;;;;;;;;;;4882314;29;20029;-73
2022/08/08 14:22:25;;;;;;;4.93;1.27;;;;;;;;;;4887127;29;20052;-73
2022/08/08 14:24:51;;;;;;;2.78;1.00;;;;;;;;;;4886625;29;20116;-74
2022/08/08 14:27:17;;;;;;;3.30;1.00;;;;;;;;;;4890717;29;20051;-74
2022/08/08 14:29:53;;;;;;;3.40;1.38;;;;;;;;;;4885016;29;20033;-74
2022/08/08 14:32:18;;;;;;;2.13;1.00;;;;;;;;;;4890466;29;20033;-73
2022/08/08 14:34:48;;;;;;;3.85;1.10;;;;;;;;;;4884833;29;20044;-73
2022/08/08 14:37:15;;;;;;;3.33;1.10;;;;;;;;;;4887704;29;20072;-73
2022/08/08 14:39:41;;;;;;;2.72;1.17;;;;;;;;;;4881613;29;20048;-73
2022/08/08 14:42:08;;;;;;;2.40;1.10;;;;;;;;;;4881225;29;20044;-74
2022/08/08 14:44:33;;;;;;;3.25;1.05;;;;;;;;;;4883631;29;20052;-73
2022/08/08 14:46:58;;;;;;;2.17;1.13;;;;;;;;;;4888653;29;20500;-73
2022/08/08 14:49:31;;;;;;;4.55;1.20;;;;;;;;;;4893498;29;20111;-73
2022/08/08 14:52:05;;;;;;;4.82;1.27;;;;;;;;;;4899974;29;20031;-73
2022/08/08 14:54:30;;;;;;;3.47;1.30;;;;;;;;;;4901010;29;20024;-73
2022/08/08 14:56:56;;;;;;;3.92;1.40;;;;;;;;;;4901048;29;20033;-73
2022/08/08 14:59:22;;;;;;;3.70;1.40;;;;;;;;;;4901182;29;20384;-73
2022/08/08 15:01:47;;;;;;;3.47;1.25;;;;;;;;;;4900915;29;20025;-73
2022/08/08 15:04:13;;;;;;;7.45;1.50;;;;;;;;;;4900962;29;20047;-74
2022/08/08 15:06:38;;;;;;;5.00;1.42;;;;;;;;;;4900737;29;20439;-73
2022/08/08 15:09:03;;;;;;;3.60;1.55;;;;;;;;;;4901078;29;20110;-74
2022/08/08 15:11:29;;;;;;;4.88;1.13;;;;;;;;;;4900803;29;20043;-73
2022/08/08 15:13:54;;;;;;;3.28;1.30;;;;;;;;;;4900322;29;20031;-74
2022/08/08 15:16:19;;;;;;;2.97;1.20;;;;;;;;;;4900738;29;20047;-74
2022/08/08 15:18:46;;;;;;;3.25;1.40;;;;;;;;;;4899593;29;20539;-74
2022/08/08 15:21:12;;;;;;;4.50;1.20;;;;;;;;;;4892829;29;20412;-74
2022/08/08 15:23:38;;;;;;;8.32;1.13;;;;;;;;;;4890096;29;20028;-75
2022/08/08 15:26:03;;;;;;;6.18;1.27;;;;;;;;;;4896095;29;20036;-75
2022/08/08 15:28:28;;;;;;;3.15;1.15;;;;;;;;;;4898878;29;20040;-73
2022/08/08 15:30:55;;;;;;;3.83;1.20;;;;;;;;;;4896664;29;20039;-73
2022/08/08 15:33:20;;;;;;;5.25;1.20;;;;;;;;;;4898728;29;20373;-74
2022/08/08 15:35:46;;;;;;;3.75;1.35;;;;;;;;;;4893946;29;20021;-73
2022/08/08 15:38:11;;;;;;;3.95;1.40;;;;;;;;;;4892075;29;20028;-73
2022/08/08 15:40:36;;;;;;;5.60;1.10;;;;;;;;;;4884484;29;20037;-75
2022/08/08 15:43:03;;;;;;;7.07;1.45;;;;;;;;;;4883255;29;20029;-73
2022/08/08 15:45:28;;;;;;;2.38;1.27;;;;;;;;;;4883254;29;20066;-74
2022/08/08 15:47:53;;;;;;;3.28;1.15;;;;;;;;;;4895543;29;20056;-74
2022/08/08 15:50:18;;;;;;;3.47;1.35;;;;;;;;;;4900157;29;20020;-73
2022/08/08 15:52:44;;;;;;;2.50;1.20;;;;;;;;;;4900178;29;20440;-73
2022/08/08 15:55:09;;;;;;;5.90;1.30;;;;;;;;;;4899853;29;20036;-74
2022/08/08 15:57:35;;;;;;;3.15;1.10;;;;;;;;;;4899521;29;20103;-74
2022/08/08 16:00:00;;;;;;;4.95;1.20;;;;;;;;;;4900066;29;20032;-74
2022/08/08 16:02:27;;;;;;;4.53;1.38;;;;;;;;;;4900107;29;20484;-74
2022/08/08 16:04:52;;;;;;;5.15;1.27;;;;;;;;;;4899947;29;20076;-73
2022/08/08 16:07:18;;;;;;;5.88;1.38;;;;;;;;;;4899548;29;20488;-74
2022/08/08 16:09:43;;;;;;;2.30;1.25;;;;;;;;;;4899670;29;20032;-74
2022/08/08 16:12:09;;;;;;;3.35;1.40;;;;;;;;;;4899722;29;20349;-75
2022/08/08 16:14:34;;;;;;;2.60;1.00;;;;;;;;;;4899758;29;20025;-75
2022/08/08 16:17:00;;;;;;;4.47;1.40;;;;;;;;;;4883763;29;20559;-74
2022/08/08 16:19:25;;;;;;;2.95;1.30;;;;;;;;;;4883038;29;20028;-74
2022/08/08 16:21:51;;;;;;;2.63;1.30;;;;;;;;;;4891899;29;20049;-73
2022/08/08 16:24:16;;;;;;;3.80;1.10;;;;;;;;;;4884494;29;20037;-74
2022/08/08 16:26:42;;;;;;;4.95;1.10;;;;;;;;;;4882243;29;20056;-73
2022/08/08 16:29:09;;;;;;;2.95;1.27;;;;;;;;;;4890940;29;20033;-74
2022/08/08 16:31:35;;;;;;;3.17;1.20;;;;;;;;;;4889937;29;20033;-74
2022/08/08 16:34:00;;;;;;;3.05;1.20;;;;;;;;;;4895867;29;20035;-73
2022/08/08 16:36:26;;;;;;;2.70;1.13;;;;;;;;;;4889256;29;20420;-74
2022/08/08 16:38:51;;;;;;;3.72;1.30;;;;;;;;;;4892520;29;20028;-74
2022/08/08 16:41:16;;;;;;;2.85;1.15;;;;;;;;;;4886330;29;20533;-74
2022/08/08 16:43:41;;;;;;;3.50;1.33;;;;;;;;;;4891343;29;20028;-74
2022/08/08 16:46:07;;;;;;;2.63;0.95;;;;;;;;;;4889632;29;20473;-73
2022/08/08 16:48:32;;;;;;;3.65;1.40;;;;;;;;;;4893935;29;20039;-73
2022/08/08 16:50:58;;;;;;;4.75;1.30;;;;;;;;;;4891974;29;20060;-73
2022/08/08 16:53:23;;;;;;;3.28;1.13;;;;;;;;;;4891126;29;20032;-74
2022/08/08 16:55:48;;;;;;;4.10;1.30;;;;;;;;;;4889978;29;20086;-74
2022/08/08 16:58:16;;;;;;;2.75;1.20;;;;;;;;;;4890757;29;20033;-74
2022/08/08 17:00:42;;;;;;;7.53;1.27;;;;;;;;;;4884082;29;20037;-73
2022/08/08 17:03:07;;;;;;;5.13;1.40;;;;;;;;;;4884025;29;20079;-74
2022/08/08 17:05:32;;;;;;;6.32;1.10;;;;;;;;;;4883444;29;20124;-73
2022/08/08 17:07:57;;;;;;;4.18;1.23;;;;;;;;;;4881923;29;20056;-74
2022/08/08 17:10:23;;;;;;;3.40;1.15;;;;;;;;;;4897441;29;20021;-73
2022/08/08 17:12:48;;;;;;;2.65;1.20;;;;;;;;;;4887272;29;20144;-73
2022/08/08 17:15:14;;;;;;;3.53;1.20;;;;;;;;;;4882857;29;20033;-74
2022/08/08 17:17:39;;;;;;;4.03;1.20;;;;;;;;;;4883259;29;20422;-73
2022/08/08 17:20:05;;;;;;;3.65;1.10;;;;;;;;;;4883673;29;20136;-73
2022/08/08 17:22:31;;;;;;;6.32;1.40;;;;;;;;;;4898002;29;20062;-74
2022/08/08 17:24:56;;;;;;;2.72;1.30;;;;;;;;;;4898467;29;20103;-73
2022/08/08 17:27:21;;;;;;;2.95;1.70;;;;;;;;;;4898461;29;20420;-74
2022/08/08 17:29:47;;;;;;;4.45;1.60;;;;;;;;;;4898329;29;20028;-74
2022/08/08 17:32:12;;;;;;;6.97;1.50;;;;;;;;;;4898220;29;20127;-74
2022/08/08 17:34:37;;;;;;;2.20;1.17;;;;;;;;;;4888024;29;20071;-73
2022/08/08 17:37:03;;;;;;;3.53;1.30;;;;;;;;;;4888109;29;20041;-74
2022/08/08 17:39:30;;;;;;;2.72;1.20;;;;;;;;;;4884190;29;20036;-73
2022/08/08 17:41:55;;;;;;;2.83;1.20;;;;;;;;;;4880605;29;20037;-73
2022/08/08 17:44:20;;;;;;;8.50;1.52;;;;;;;;;;4886648;29;20036;-73
2022/08/08 17:46:48;;;;;;;5.63;1.40;;;;;;;;;;4896816;29;20060;-73
2022/08/08 17:49:14;;;;;;;2.92;1.30;;;;;;;;;;4886298;29;20048;-74
2022/08/08 17:51:39;;;;;;;5.35;1.27;;;;;;;;;;4888145;29;20059;-73
2022/08/08 17:54:05;;;;;;;7.68;1.42;;;;;;;;;;4887389;29;20491;-73
2022/08/08 17:56:31;;;;;;;5.95;1.63;;;;;;;;;;4883385;29;20033;-73
2022/08/08 17:58:56;;;;;;;4.07;1.50;;;;;;;;;;4892038;29;20469;-73
2022/08/08 18:01:22;;;;;;;4.13;1.30;;;;;;;;;;4883270;29;20449;-74
2022/08/08 18:03:47;;;;;;;3.03;1.23;;;;;;;;;;4886217;29;20032;-73
2022/08/08 18:06:13;;;;;;;4.22;1.30;;;;;;;;;;4883847;29;20049;-74
2022/08/08 18:08:38;;;;;;;2.95;1.20;;;;;;;;;;4890868;29;20025;-73
2022/08/08 18:11:05;;;;;;;4.78;1.45;;;;;;;;;;4885915;29;20037;-73
2022/08/08 18:13:30;;;;;;;3.90;1.20;;;;;;;;;;4885786;29;20037;-74
2022/08/08 18:15:55;;;;;;;4.70;1.40;;;;;;;;;;4880579;29;20025;-74
2022/08/08 18:18:20;;;;;;;2.90;1.15;;;;;;;;;;4884559;29;20473;-74
2022/08/08 18:20:46;;;;;;;2.28;1.00;;;;;;;;;;4884912;29;20028;-73
2022/08/08 18:23:11;;;;;;;2.15;1.15;;;;;;;;;;4891313;29;20020;-73
2022/08/08 18:25:36;;;;;;;5.55;1.33;;;;;;;;;;4886830;29;20044;-73
2022/08/08 18:28:02;;;;;;;5.82;1.40;;;;;;;;;;4892530;29;20044;-73
2022/08/08 18:30:27;;;;;;;3.53;1.40;;;;;;;;;;4887655;29;20109;-73
2022/08/08 18:32:52;;;;;;;2.85;1.23;;;;;;;;;;4889410;29;20029;-73
2022/08/08 18:35:18;;;;;;;3.65;1.40;;;;;;;;;;4891203;29;20366;-74
2022/08/08 18:37:43;;;;;;;2.63;1.42;;;;;;;;;;4897964;29;20112;-74
2022/08/08 18:40:09;;;;;;;3.78;1.40;;;;;;;;;;4894866;29;20021;-73
2022/08/08 18:42:35;;;;;;;3.60;1.27;;;;;;;;;;4895094;29;20032;-75
2022/08/08 18:45:00;;;;;;;2.70;1.20;;;;;;;;;;4899576;29;20054;-73
2022/08/08 18:47:25;;;;;;;4.18;1.40;;;;;;;;;;4893111;29;20540;-74
2022/08/08 18:49:52;;;;;;;4.05;1.40;;;;;;;;;;4891118;29;20051;-73
2022/08/08 18:52:17;;;;;;;10.00;1.65;;;;;;;;;;4893884;29;20024;-73
2022/08/08 18:54:43;;;;;;;6.43;1.75;;;;;;;;;;4893831;29;20496;-73
2022/08/08 18:57:08;;;;;;;2.85;1.60;;;;;;;;;;4892881;29;20025;-73
2022/08/08 18:59:33;;;;;;;3.60;1.40;;;;;;;;;;4892951;29;20048;-73
2022/08/08 19:01:59;;;;;;;8.95;1.95;;;;;;;;;;4893749;29;20035;-72
2022/08/08 19:04:25;;;;;;;4.30;1.40;;;;;;;;;;4894074;29;20105;-72
2022/08/08 19:06:51;;;;;;;4.55;1.40;;;;;;;;;;4892644;29;20040;-73
2022/08/08 19:09:16;;;;;;;3.05;1.38;;;;;;;;;;4899454;29;20024;-73
2022/08/08 19:11:41;;;;;;;4.80;1.50;;;;;;;;;;4900657;29;20389;-73
2022/08/08 19:14:07;;;;;;;5.63;1.50;;;;;;;;;;4900751;29;20024;-73
2022/08/08 19:16:33;;;;;;;5.25;1.40;;;;;;;;;;4900477;29;20112;-73
2022/08/08 19:18:58;;;;;;;4.63;1.42;;;;;;;;;;4900753;29;20032;-73
2022/08/08 19:21:25;;;;;;;3.88;2.08;;;;;;;;;;4892456;29;20053;-73
2022/08/08 19:23:50;;;;;;;4.68;1.60;;;;;;;;;;4890911;29;20029;-73
2022/08/08 19:26:16;;;;;;;6.18;1.60;;;;;;;;;;4891729;29;20037;-74
2022/08/08 19:28:41;;;;;;;2.95;1.40;;;;;;;;;;4900556;29;20024;-73
2022/08/08 19:31:06;;;;;;;2.90;1.30;;;;;;;;;;4900617;29;20031;-73
2022/08/08 19:33:32;;;;;;;3.35;1.90;;;;;;;;;;4888841;29;20063;-73
2022/08/08 19:35:57;;;;;;;4.22;1.55;;;;;;;;;;4885733;29;20025;-73
2022/08/08 19:38:23;;;;;;;4.03;2.10;;;;;;;;;;4894455;29;20477;-72
2022/08/08 19:40:49;;;;;;;4.60;1.45;;;;;;;;;;4891605;29;20037;-73
2022/08/08 19:43:14;;;;;;;4.70;1.52;;;;;;;;;;4890945;29;20017;-72
2022/08/08 19:45:39;;;;;;;3.35;1.30;;;;;;;;;;4883437;29;20036;-72
2022/08/08 19:48:05;;;;;;;3.53;1.55;;;;;;;;;;4894373;29;20417;-73
2022/08/08 19:50:31;;;;;;;5.20;1.52;;;;;;;;;;4899693;29;20032;-74
2022/08/08 19:52:57;;;;;;;4.45;1.92;;;;;;;;;;4900130;29;20093;-73
2022/08/08 19:55:22;;;;;;;6.07;1.80;;;;;;;;;;4892967;29;20095;-73
2022/08/08 19:57:48;;;;;;;2.95;1.65;;;;;;;;;;4893488;29;20040;-72
2022/08/08 20:00:15;;;;;;;6.75;2.45;;;;;;;;;;4890410;29;20103;-72
2022/08/08 20:02:40;;;;;;;7.20;2.22;;;;;;;;;;4888947;29;20029;-71
2022/08/08 20:05:06;;;;;;;3.78;2.03;;;;;;;;;;4888537;29;20023;-72
2022/08/08 20:07:32;;;;;;;6.47;2.33;;;;;;;;;;4892355;29;20109;-72
2022/08/08 20:09:58;;;;;;;6.50;2.58;;;;;;;;;;4895756;29;20037;-72
2022/08/08 20:12:24;;;;;;;4.63;2.47;;;;;;;;;;4897427;29;20024;-72
2022/08/08 20:14:50;;;;;;;6.15;2.83;;;;;;;;;;4898028;29;20488;-72
2022/08/08 20:17:15;;;;;;;5.05;2.30;;;;;;;;;;4893936;29;20080;-72
2022/08/08 20:19:40;;;;;;;5.82;2.28;;;;;;;;;;4898383;29;20024;-72
2022/08/08 20:22:06;;;;;;;4.53;2.40;;;;;;;;;;4899428;29;20532;-72
2022/08/08 20:24:31;;;;;;;6.82;2.55;;;;;;;;;;4899784;29;20036;-71
2022/08/08 20:26:56;;;;;;;6.00;2.30;;;;;;;;;;4893487;29;20045;-73
2022/08/08 20:29:22;;;;;;;6.32;2.40;;;;;;;;;;4882415;29;20468;-74
2022/08/08 20:31:49;;;;;;;3.42;2.28;;;;;;;;;;4897544;29;20084;-73
2022/08/08 20:34:15;;;;;;;4.25;2.25;;;;;;;;;;4899633;29;20433;-72
2022/08/08 20:36:41;;;;;;;5.47;2.05;;;;;;;;;;4898700;29;20111;-72
2022/08/08 20:39:06;;;;;;;5.20;2.20;;;;;;;;;;4899429;29;20037;-72
2022/08/08 20:41:32;;;;;;;5.10;2.25;;;;;;;;;;4898794;29;20424;-73
2022/08/08 20:43:59;;;;;;;4.68;2.50;;;;;;;;;;4897007;29;20028;-73
2022/08/08 20:46:24;;;;;;;6.05;2.00;;;;;;;;;;4898518;29;20071;-73
2022/08/08 20:48:50;;;;;;;3.90;2.28;;;;;;;;;;4898100;29;20453;-73
2022/08/08 20:51:16;;;;;;;5.40;2.20;;;;;;;;;;4894072;29;20028;-73
2022/08/08 20:53:42;;;;;;;5.70;2.25;;;;;;;;;;4892678;29;20055;-72
2022/08/08 20:56:07;;;;;;;4.20;2.28;;;;;;;;;;4884761;29;20025;-72
2022/08/08 20:58:32;;;;;;;5.78;2.53;;;;;;;;;;4882873;29;20429;-72
2022/08/08 21:00:58;;;;;;;5.72;2.40;;;;;;;;;;4897448;29;20035;-72
2022/08/08 21:03:23;;;;;;;7.70;2.35;;;;;;;;;;4896997;29;20429;-72
2022/08/08 21:05:48;;;;;;;5.78;2.50;;;;;;;;;;4895888;29;20033;-73
2022/08/08 21:08:14;;;;;;;5.63;2.35;;;;;;;;;;4896701;29;20535;-73
2022/08/08 21:10:39;;;;;;;8.98;2.47;;;;;;;;;;4896387;29;20021;-72
2022/08/08 21:13:06;;;;;;;5.53;2.35;;;;;;;;;;4893854;29;20061;-72
2022/08/08 21:15:31;;;;;;;5.97;2.22;;;;;;;;;;4878163;29;20041;-72
2022/08/08 21:17:56;;;;;;;6.15;2.83;;;;;;;;;;4889567;29;20025;-72
2022/08/08 21:20:22;;;;;;;4.72;2.40;;;;;;;;;;4881378;29;20045;-72
2022/08/08 21:22:48;;;;;;;5.57;2.72;;;;;;;;;;4894303;29;20084;-73
2022/08/08 21:25:14;;;;;;;4.68;2.75;;;;;;;;;;4898880;29;20107;-72
2022/08/08 21:27:39;;;;;;;6.82;2.97;;;;;;;;;;4898381;29;20127;-72
2022/08/08 21:30:05;;;;;;;6.07;2.97;;;;;;;;;;4888083;29;20045;-73
2022/08/08 21:32:31;;;;;;;5.80;2.58;;;;;;;;;;4885822;29;20068;-72
2022/08/08 21:34:57;;;;;;;4.25;2.70;;;;;;;;;;4886094;29;20028;-72
2022/08/08 21:37:22;;;;;;;5.75;2.80;;;;;;;;;;4891086;29;20404;-72
2022/08/08 21:39:47;;;;;;;6.07;2.90;;;;;;;;;;4894682;29;20024;-72
2022/08/08 21:42:13;;;;;;;4.95;2.78;;;;;;;;;;4895315;29;20028;-72
2022/08/08 21:44:38;;;;;;;6.15;2.75;;;;;;;;;;4898242;29;20035;-71
2022/08/08 21:47:05;;;;;;;4.40;2.60;;;;;;;;;;4892045;29;20213;-72
2022/08/08 21:49:30;;;;;;;5.85;2.60;;;;;;;;;;4891878;29;20052;-72
2022/08/08 21:51:56;;;;;;;6.97;2.42;;;;;;;;;;4885220;29;20124;-72
2022/08/08 21:54:21;;;;;;;5.57;2.92;;;;;;;;;;4884054;29;20484;-73
2022/08/08 21:56:47;;;;;;;4.85;2.95;;;;;;;;;;4884499;29;20040;-72
2022/08/08 21:59:12;;;;;;;9.07;3.10;;;;;;;;;;4898235;29;20044;-72
2022/08/08 22:01:37;;;;;;;8.55;2.90;;;;;;;;;;4897933;29;20468;-72
2022/08/08 22:04:03;;;;;;;7.20;2.60;;;;;;;;;;4898162;29;20032;-72
2022/08/08 22:06:28;;;;;;;5.28;2.53;;;;;;;;;;4898005;29;20045;-72
2022/08/08 22:08:54;;;;;;;5.35;2.80;;;;;;;;;;4897227;29;20098;-72
2022/08/08 22:11:20;;;;;;;6.25;2.92;;;;;;;;;;4879924;29;20029;-72
2022/08/08 22:13:45;;;;;;;3.97;2.58;;;;;;;;;;4890429;29;20033;-72
2022/08/08 22:16:10;;;;;;;6.10;3.00;;;;;;;;;;4898016;29;20025;-71
2022/08/08 22:18:36;;;;;;;4.28;2.65;;;;;;;;;;4897076;29;20089;-71
2022/08/08 22:21:03;;;;;;;5.13;2.70;;;;;;;;;;4880510;29;20076;-72
2022/08/08 22:23:28;;;;;;;3.67;2.65;;;;;;;;;;4881305;29;20052;-72
2022/08/08 22:25:53;;;;;;;4.63;2.83;;;;;;;;;;4897963;29;20063;-71
2022/08/08 22:28:19;;;;;;;7.25;2.95;;;;;;;;;;4885899;29;20373;-71
2022/08/08 22:30:44;;;;;;;5.55;3.05;;;;;;;;;;4881776;29;20033;-72
2022/08/08 22:33:11;;;;;;;5.65;2.83;;;;;;;;;;4889447;29;20029;-73
2022/08/08 22:35:36;;;;;;;4.88;2.85;;;;;;;;;;4881432;29;20084;-72
2022/08/08 22:38:02;;;;;;;5.03;3.03;;;;;;;;;;4881292;29;20025;-71
2022/08/08 22:40:27;;;;;;;6.00;2.72;;;;;;;;;;4888970;29;20037;-71
2022/08/08 22:42:52;;;;;;;4.10;2.70;;;;;;;;;;4880504;29;20032;-72
2022/08/08 22:45:18;;;;;;;5.20;3.10;;;;;;;;;;4879514;29;20061;-71
2022/08/08 22:47:43;;;;;;;4.03;2.75;;;;;;;;;;4879437;29;20133;-71
2022/08/08 22:50:09;;;;;;;6.90;2.75;;;;;;;;;;4897355;29;20426;-71
2022/08/08 22:52:34;;;;;;;6.28;3.10;;;;;;;;;;4897560;29;20021;-71
2022/08/08 22:54:59;;;;;;;5.00;3.15;;;;;;;;;;4897788;29;20038;-71
2022/08/08 22:57:24;;;;;;;4.32;2.60;;;;;;;;;;4897474;29;20059;-71
2022/08/08 22:59:50;;;;;;;5.07;3.15;;;;;;;;;;4897730;29;20441;-71
2022/08/08 23:02:15;;;;;;;6.60;3.28;;;;;;;;;;4897525;29;20079;-71
2022/08/08 23:04:54;;;;;;;7.88;3.22;;;;;;;;;;4897640;29;20060;-71
2022/08/08 23:07:20;;;;;;;9.02;3.10;;;;;;;;;;4898972;29;20040;-71
2022/08/08 23:09:46;;;;;;;5.85;2.88;;;;;;;;;;4900821;29;20038;-71
2022/08/08 23:12:11;;;;;;;4.72;2.80;;;;;;;;;;4901031;29;20107;-71
2022/08/08 23:14:36;;;;;;;6.45;3.03;;;;;;;;;;4900877;29;20535;-72
2022/08/08 23:17:01;;;;;;;5.82;3.10;;;;;;;;;;4900963;29;20076;-71
2022/08/08 23:19:27;;;;;;;6.32;3.40;;;;;;;;;;4900758;29;20036;-72
2022/08/08 23:21:53;;;;;;;5.50;3.63;;;;;;;;;;4900780;29;20096;-72
2022/08/08 23:24:18;;;;;;;4.05;3.15;;;;;;;;;;4900719;29;20033;-72
2022/08/08 23:26:43;;;;;;;5.60;3.55;;;;;;;;;;4900813;29;20043;-71
2022/08/08 23:29:08;;;;;;;6.55;3.38;;;;;;;;;;4898611;29;20084;-71
2022/08/08 23:31:34;;;;;;;9.57;3.70;;;;;;;;;;4883271;29;20387;-71
2022/08/08 23:34:00;;;;;;;7.15;3.88;;;;;;;;;;4888815;29;20099;-71
2022/08/08 23:36:25;;;;;;;5.70;3.90;;;;;;;;;;4897002;29;20043;-73
2022/08/08 23:38:50;;;;;;;8.77;3.90;;;;;;;;;;4893996;29;20479;-72
2022/08/08 23:41:16;;;;;;;6.45;3.72;;;;;;;;;;4899016;29;20036;-72
2022/08/08 23:43:41;;;;;;;10.80;4.90;;;;;;;;;;4890743;29;20021;-71
2022/08/08 23:46:06;;;;;;;6.07;3.67;;;;;;;;;;4902586;29;20040;-72
2022/08/08 23:48:31;;;;;;;5.43;3.65;;;;;;;;;;4904607;29;20017;-71
2022/08/08 23:50:57;;;;;;;6.47;3.63;;;;;;;;;;4894215;29;20025;-72
2022/08/08 23:53:22;;;;;;;6.40;4.05;;;;;;;;;;4899777;29;20041;-72
2022/08/08 23:55:47;;;;;;;8.18;4.20;;;;;;;;;;4892729;29;20057;-72
2022/08/08 23:58:13;;;;;;;8.73;3.78;;;;;;;;;;4896238;29;20519;-71
